sensor_id;sensor_type;location;lat;lon;timestamp;P1;durP1;ratioP1;P2;durP2;ratioP2
13743;SDS011;6943;52.368;9.966;2023-04-21T00:01:47;18.70;;;16.77;;
13743;SDS011;6943;52.368;9.966;2023-04-21T00:04:12;19.90;;;16.10;;
13743;SDS011;6943;52.368;9.966;2023-04-21T00:06:38;21.07;;;16.10;;
13743;SDS011;6943;52.368;9.966;2023-04-21T00:09:05;17.57;;;15.77;;
13743;SDS011;6943;52.368;9.966;2023-04-21T00:11:35;22.13;;;15.73;;
13743;SDS011;6943;52.368;9.966;2023-04-21T00:14:00;21.73;;;15.63;;
13743;SDS011;6943;52.368;9.966;2023-04-21T00:16:26;17.97;;;15.27;;
13743;SDS011;6943;52.368;9.966;2023-04-21T00:18:51;21.20;;;15.37;;
13743;SDS011;6943;52.368;9.966;2023-04-21T00:21:17;19.60;;;14.53;;
13743;SDS011;6943;52.368;9.966;2023-04-21T00:23:42;19.83;;;14.80;;
13743;SDS011;6943;52.368;9.966;2023-04-21T00:26:08;21.83;;;15.23;;
13743;SDS011;6943;52.368;9.966;2023-04-21T00:28:33;18.00;;;14.37;;
13743;SDS011;6943;52.368;9.966;2023-04-21T00:30:59;20.37;;;14.57;;
13743;SDS011;6943;52.368;9.966;2023-04-21T00:33:25;18.40;;;13.63;;
13743;SDS011;6943;52.368;9.966;2023-04-21T00:35:50;17.13;;;14.97;;
13743;SDS011;6943;52.368;9.966;2023-04-21T00:38:18;17.17;;;15.03;;
13743;SDS011;6943;52.368;9.966;2023-04-21T00:40:43;15.67;;;13.47;;
13743;SDS011;6943;52.368;9.966;2023-04-21T00:43:09;20.43;;;14.00;;
13743;SDS011;6943;52.368;9.966;2023-04-21T00:45:35;16.13;;;13.20;;
13743;SDS011;6943;52.368;9.966;2023-04-21T00:48:00;16.53;;;13.47;;
13743;SDS011;6943;52.368;9.966;2023-04-21T00:50:25;19.40;;;14.57;;
13743;SDS011;6943;52.368;9.966;2023-04-21T00:52:52;19.07;;;15.03;;
13743;SDS011;6943;52.368;9.966;2023-04-21T00:55:17;18.93;;;14.77;;
13743;SDS011;6943;52.368;9.966;2023-04-21T00:57:43;18.77;;;13.33;;
13743;SDS011;6943;52.368;9.966;2023-04-21T01:00:09;17.17;;;13.50;;
13743;SDS011;6943;52.368;9.966;2023-04-21T01:02:35;17.97;;;14.13;;
13743;SDS011;6943;52.368;9.966;2023-04-21T01:05:05;19.00;;;13.07;;
13743;SDS011;6943;52.368;9.966;2023-04-21T01:07:32;16.00;;;13.80;;
13743;SDS011;6943;52.368;9.966;2023-04-21T01:09:58;14.67;;;12.53;;
13743;SDS011;6943;52.368;9.966;2023-04-21T01:12:24;18.40;;;13.07;;
13743;SDS011;6943;52.368;9.966;2023-04-21T01:14:49;17.23;;;12.83;;
13743;SDS011;6943;52.368;9.966;2023-04-21T01:17:15;16.27;;;12.80;;
13743;SDS011;6943;52.368;9.966;2023-04-21T01:19:43;16.47;;;12.97;;
13743;SDS011;6943;52.368;9.966;2023-04-21T01:22:09;15.90;;;13.07;;
13743;SDS011;6943;52.368;9.966;2023-04-21T01:24:39;16.73;;;12.83;;
13743;SDS011;6943;52.368;9.966;2023-04-21T01:27:10;20.03;;;11.93;;
13743;SDS011;6943;52.368;9.966;2023-04-21T01:29:37;18.17;;;12.43;;
13743;SDS011;6943;52.368;9.966;2023-04-21T01:32:11;17.13;;;11.80;;
13743;SDS011;6943;52.368;9.966;2023-04-21T01:34:41;13.90;;;11.90;;
13743;SDS011;6943;52.368;9.966;2023-04-21T01:37:07;14.37;;;12.17;;
13743;SDS011;6943;52.368;9.966;2023-04-21T01:39:41;15.50;;;11.63;;
13743;SDS011;6943;52.368;9.966;2023-04-21T01:42:08;13.23;;;11.33;;
13743;SDS011;6943;52.368;9.966;2023-04-21T01:44:34;14.70;;;12.17;;
13743;SDS011;6943;52.368;9.966;2023-04-21T01:47:00;15.17;;;12.13;;
13743;SDS011;6943;52.368;9.966;2023-04-21T01:49:26;13.43;;;10.93;;
13743;SDS011;6943;52.368;9.966;2023-04-21T01:51:51;12.50;;;10.87;;
13743;SDS011;6943;52.368;9.966;2023-04-21T01:54:17;16.00;;;11.47;;
13743;SDS011;6943;52.368;9.966;2023-04-21T01:56:42;16.93;;;11.53;;
13743;SDS011;6943;52.368;9.966;2023-04-21T01:59:08;14.47;;;10.90;;
13743;SDS011;6943;52.368;9.966;2023-04-21T02:01:33;14.40;;;10.50;;
13743;SDS011;6943;52.368;9.966;2023-04-21T02:04:00;15.47;;;11.47;;
13743;SDS011;6943;52.368;9.966;2023-04-21T02:06:26;14.77;;;11.50;;
13743;SDS011;6943;52.368;9.966;2023-04-21T02:08:51;13.53;;;10.47;;
13743;SDS011;6943;52.368;9.966;2023-04-21T02:11:17;13.47;;;11.00;;
13743;SDS011;6943;52.368;9.966;2023-04-21T02:13:42;16.10;;;11.33;;
13743;SDS011;6943;52.368;9.966;2023-04-21T02:16:08;17.07;;;9.87;;
13743;SDS011;6943;52.368;9.966;2023-04-21T02:18:33;18.43;;;11.57;;
13743;SDS011;6943;52.368;9.966;2023-04-21T02:20:59;16.87;;;11.17;;
13743;SDS011;6943;52.368;9.966;2023-04-21T02:23:24;14.50;;;10.63;;
13743;SDS011;6943;52.368;9.966;2023-04-21T02:25:50;14.57;;;10.57;;
13743;SDS011;6943;52.368;9.966;2023-04-21T02:28:15;12.87;;;9.90;;
13743;SDS011;6943;52.368;9.966;2023-04-21T02:30:40;16.27;;;11.03;;
13743;SDS011;6943;52.368;9.966;2023-04-21T02:33:06;17.57;;;12.07;;
13743;SDS011;6943;52.368;9.966;2023-04-21T02:35:31;11.30;;;10.00;;
13743;SDS011;6943;52.368;9.966;2023-04-21T02:37:57;11.63;;;10.27;;
13743;SDS011;6943;52.368;9.966;2023-04-21T02:40:23;15.50;;;10.03;;
13743;SDS011;6943;52.368;9.966;2023-04-21T02:42:48;18.30;;;10.80;;
13743;SDS011;6943;52.368;9.966;2023-04-21T02:45:14;13.70;;;10.07;;
13743;SDS011;6943;52.368;9.966;2023-04-21T02:47:40;18.30;;;11.97;;
13743;SDS011;6943;52.368;9.966;2023-04-21T02:50:05;15.20;;;10.83;;
13743;SDS011;6943;52.368;9.966;2023-04-21T02:52:34;17.13;;;10.97;;
13743;SDS011;6943;52.368;9.966;2023-04-21T02:55:01;14.13;;;11.33;;
13743;SDS011;6943;52.368;9.966;2023-04-21T02:57:27;12.63;;;10.00;;
13743;SDS011;6943;52.368;9.966;2023-04-21T02:59:52;12.23;;;10.77;;
13743;SDS011;6943;52.368;9.966;2023-04-21T03:02:18;11.73;;;10.53;;
13743;SDS011;6943;52.368;9.966;2023-04-21T03:04:43;12.20;;;10.33;;
13743;SDS011;6943;52.368;9.966;2023-04-21T03:07:12;14.77;;;10.53;;
13743;SDS011;6943;52.368;9.966;2023-04-21T03:09:38;17.37;;;10.73;;
13743;SDS011;6943;52.368;9.966;2023-04-21T03:12:04;14.33;;;11.17;;
13743;SDS011;6943;52.368;9.966;2023-04-21T03:14:29;14.27;;;10.03;;
13743;SDS011;6943;52.368;9.966;2023-04-21T03:16:55;16.80;;;11.07;;
13743;SDS011;6943;52.368;9.966;2023-04-21T03:19:20;12.87;;;10.83;;
13743;SDS011;6943;52.368;9.966;2023-04-21T03:21:46;17.07;;;10.20;;
13743;SDS011;6943;52.368;9.966;2023-04-21T03:24:11;15.63;;;11.10;;
13743;SDS011;6943;52.368;9.966;2023-04-21T03:26:37;14.60;;;10.53;;
13743;SDS011;6943;52.368;9.966;2023-04-21T03:29:04;15.10;;;11.77;;
13743;SDS011;6943;52.368;9.966;2023-04-21T03:31:30;12.50;;;10.97;;
13743;SDS011;6943;52.368;9.966;2023-04-21T03:33:55;12.57;;;10.43;;
13743;SDS011;6943;52.368;9.966;2023-04-21T03:36:21;15.10;;;10.10;;
13743;SDS011;6943;52.368;9.966;2023-04-21T03:38:46;16.17;;;10.43;;
13743;SDS011;6943;52.368;9.966;2023-04-21T03:41:12;14.13;;;10.50;;
13743;SDS011;6943;52.368;9.966;2023-04-21T03:43:37;14.57;;;10.80;;
13743;SDS011;6943;52.368;9.966;2023-04-21T03:46:03;14.93;;;11.00;;
13743;SDS011;6943;52.368;9.966;2023-04-21T03:48:28;12.63;;;10.93;;
13743;SDS011;6943;52.368;9.966;2023-04-21T03:50:54;14.07;;;11.53;;
13743;SDS011;6943;52.368;9.966;2023-04-21T03:53:19;13.40;;;11.00;;
13743;SDS011;6943;52.368;9.966;2023-04-21T03:55:45;14.47;;;11.30;;
13743;SDS011;6943;52.368;9.966;2023-04-21T03:58:14;16.40;;;11.13;;
13743;SDS011;6943;52.368;9.966;2023-04-21T04:00:40;16.07;;;10.80;;
13743;SDS011;6943;52.368;9.966;2023-04-21T04:03:05;15.97;;;11.50;;
13743;SDS011;6943;52.368;9.966;2023-04-21T04:05:31;15.20;;;11.47;;
13743;SDS011;6943;52.368;9.966;2023-04-21T04:07:57;16.33;;;12.60;;
13743;SDS011;6943;52.368;9.966;2023-04-21T04:10:22;16.00;;;12.63;;
13743;SDS011;6943;52.368;9.966;2023-04-21T04:12:48;17.57;;;12.23;;
13743;SDS011;6943;52.368;9.966;2023-04-21T04:15:13;14.73;;;12.23;;
13743;SDS011;6943;52.368;9.966;2023-04-21T04:17:39;19.97;;;11.70;;
13743;SDS011;6943;52.368;9.966;2023-04-21T04:20:05;15.30;;;11.27;;
13743;SDS011;6943;52.368;9.966;2023-04-21T04:22:32;15.03;;;12.00;;
13743;SDS011;6943;52.368;9.966;2023-04-21T04:24:58;14.00;;;10.90;;
13743;SDS011;6943;52.368;9.966;2023-04-21T04:27:25;18.83;;;11.57;;
13743;SDS011;6943;52.368;9.966;2023-04-21T04:29:51;15.53;;;12.03;;
13743;SDS011;6943;52.368;9.966;2023-04-21T04:32:17;13.10;;;11.00;;
13743;SDS011;6943;52.368;9.966;2023-04-21T04:34:42;13.63;;;10.23;;
13743;SDS011;6943;52.368;9.966;2023-04-21T04:37:08;15.43;;;10.80;;
13743;SDS011;6943;52.368;9.966;2023-04-21T04:39:35;15.97;;;10.67;;
13743;SDS011;6943;52.368;9.966;2023-04-21T04:42:01;13.60;;;11.13;;
13743;SDS011;6943;52.368;9.966;2023-04-21T04:44:27;14.10;;;9.50;;
13743;SDS011;6943;52.368;9.966;2023-04-21T04:46:53;12.97;;;9.57;;
13743;SDS011;6943;52.368;9.966;2023-04-21T04:49:19;14.90;;;9.50;;
13743;SDS011;6943;52.368;9.966;2023-04-21T04:51:45;14.53;;;9.07;;
13743;SDS011;6943;52.368;9.966;2023-04-21T04:54:10;13.47;;;9.83;;
13743;SDS011;6943;52.368;9.966;2023-04-21T04:56:36;12.47;;;8.90;;
13743;SDS011;6943;52.368;9.966;2023-04-21T04:59:01;11.57;;;8.97;;
13743;SDS011;6943;52.368;9.966;2023-04-21T05:01:27;11.27;;;9.30;;
13743;SDS011;6943;52.368;9.966;2023-04-21T05:03:54;13.17;;;8.90;;
13743;SDS011;6943;52.368;9.966;2023-04-21T05:06:21;13.80;;;8.73;;
13743;SDS011;6943;52.368;9.966;2023-04-21T05:08:47;18.07;;;8.93;;
13743;SDS011;6943;52.368;9.966;2023-04-21T05:11:12;14.17;;;8.10;;
13743;SDS011;6943;52.368;9.966;2023-04-21T05:13:38;12.17;;;8.43;;
13743;SDS011;6943;52.368;9.966;2023-04-21T05:16:03;12.47;;;8.57;;
13743;SDS011;6943;52.368;9.966;2023-04-21T05:18:30;11.30;;;7.97;;
13743;SDS011;6943;52.368;9.966;2023-04-21T05:20:55;14.03;;;8.57;;
13743;SDS011;6943;52.368;9.966;2023-04-21T05:23:21;16.17;;;8.50;;
13743;SDS011;6943;52.368;9.966;2023-04-21T05:25:46;12.33;;;7.70;;
13743;SDS011;6943;52.368;9.966;2023-04-21T05:28:12;12.07;;;8.13;;
13743;SDS011;6943;52.368;9.966;2023-04-21T05:30:38;12.90;;;7.60;;
13743;SDS011;6943;52.368;9.966;2023-04-21T05:33:04;11.23;;;7.67;;
13743;SDS011;6943;52.368;9.966;2023-04-21T05:35:29;11.37;;;7.70;;
13743;SDS011;6943;52.368;9.966;2023-04-21T05:37:55;9.27;;;7.87;;
13743;SDS011;6943;52.368;9.966;2023-04-21T05:40:20;13.73;;;7.40;;
13743;SDS011;6943;52.368;9.966;2023-04-21T05:42:46;11.60;;;8.53;;
13743;SDS011;6943;52.368;9.966;2023-04-21T05:45:11;11.97;;;8.20;;
13743;SDS011;6943;52.368;9.966;2023-04-21T05:47:37;12.40;;;8.07;;
13743;SDS011;6943;52.368;9.966;2023-04-21T05:50:03;10.97;;;7.73;;
13743;SDS011;6943;52.368;9.966;2023-04-21T05:52:30;12.50;;;7.37;;
13743;SDS011;6943;52.368;9.966;2023-04-21T05:54:56;11.73;;;7.20;;
13743;SDS011;6943;52.368;9.966;2023-04-21T05:57:23;11.27;;;7.17;;
13743;SDS011;6943;52.368;9.966;2023-04-21T05:59:49;10.53;;;6.77;;
13743;SDS011;6943;52.368;9.966;2023-04-21T06:02:14;10.57;;;7.70;;
13743;SDS011;6943;52.368;9.966;2023-04-21T06:04:40;11.10;;;7.00;;
13743;SDS011;6943;52.368;9.966;2023-04-21T06:07:06;12.73;;;7.40;;
13743;SDS011;6943;52.368;9.966;2023-04-21T06:09:33;12.50;;;7.83;;
13743;SDS011;6943;52.368;9.966;2023-04-21T06:12:00;11.03;;;6.93;;
13743;SDS011;6943;52.368;9.966;2023-04-21T06:14:25;9.93;;;6.73;;
13743;SDS011;6943;52.368;9.966;2023-04-21T06:16:51;11.83;;;6.90;;
13743;SDS011;6943;52.368;9.966;2023-04-21T06:19:17;11.40;;;7.50;;
13743;SDS011;6943;52.368;9.966;2023-04-21T06:21:42;15.27;;;7.03;;
13743;SDS011;6943;52.368;9.966;2023-04-21T06:24:07;12.57;;;7.13;;
13743;SDS011;6943;52.368;9.966;2023-04-21T06:26:33;11.23;;;7.50;;
13743;SDS011;6943;52.368;9.966;2023-04-21T06:28:59;10.50;;;6.93;;
13743;SDS011;6943;52.368;9.966;2023-04-21T06:31:24;12.10;;;6.97;;
13743;SDS011;6943;52.368;9.966;2023-04-21T06:33:51;10.70;;;7.40;;
13743;SDS011;6943;52.368;9.966;2023-04-21T06:36:17;11.07;;;7.10;;
13743;SDS011;6943;52.368;9.966;2023-04-21T06:38:42;10.27;;;6.87;;
13743;SDS011;6943;52.368;9.966;2023-04-21T06:41:08;8.43;;;7.33;;
13743;SDS011;6943;52.368;9.966;2023-04-21T06:43:34;14.47;;;7.63;;
13743;SDS011;6943;52.368;9.966;2023-04-21T06:46:00;14.23;;;7.20;;
13743;SDS011;6943;52.368;9.966;2023-04-21T06:48:25;10.07;;;7.07;;
13743;SDS011;6943;52.368;9.966;2023-04-21T06:50:51;8.43;;;7.00;;
13743;SDS011;6943;52.368;9.966;2023-04-21T06:53:17;13.40;;;7.60;;
13743;SDS011;6943;52.368;9.966;2023-04-21T06:55:42;10.33;;;7.37;;
13743;SDS011;6943;52.368;9.966;2023-04-21T06:58:08;13.23;;;7.10;;
13743;SDS011;6943;52.368;9.966;2023-04-21T07:00:35;14.10;;;8.33;;
13743;SDS011;6943;52.368;9.966;2023-04-21T07:03:00;13.47;;;7.50;;
13743;SDS011;6943;52.368;9.966;2023-04-21T07:05:27;10.10;;;8.13;;
13743;SDS011;6943;52.368;9.966;2023-04-21T07:07:53;13.03;;;7.73;;
13743;SDS011;6943;52.368;9.966;2023-04-21T07:10:23;10.77;;;7.53;;
13743;SDS011;6943;52.368;9.966;2023-04-21T07:12:49;8.90;;;8.00;;
13743;SDS011;6943;52.368;9.966;2023-04-21T07:15:14;12.10;;;6.90;;
13743;SDS011;6943;52.368;9.966;2023-04-21T07:17:41;9.87;;;7.27;;
13743;SDS011;6943;52.368;9.966;2023-04-21T07:20:06;13.20;;;7.87;;
13743;SDS011;6943;52.368;9.966;2023-04-21T07:22:32;15.77;;;8.37;;
13743;SDS011;6943;52.368;9.966;2023-04-21T07:24:59;12.87;;;7.63;;
13743;SDS011;6943;52.368;9.966;2023-04-21T07:27:30;12.90;;;6.87;;
13743;SDS011;6943;52.368;9.966;2023-04-21T07:29:56;12.30;;;8.57;;
13743;SDS011;6943;52.368;9.966;2023-04-21T07:32:21;8.57;;;7.67;;
13743;SDS011;6943;52.368;9.966;2023-04-21T07:34:47;9.53;;;7.80;;
13743;SDS011;6943;52.368;9.966;2023-04-21T07:37:12;12.50;;;7.63;;
13743;SDS011;6943;52.368;9.966;2023-04-21T07:39:38;11.47;;;8.10;;
13743;SDS011;6943;52.368;9.966;2023-04-21T07:42:03;11.00;;;7.77;;
13743;SDS011;6943;52.368;9.966;2023-04-21T07:44:32;10.33;;;8.03;;
13743;SDS011;6943;52.368;9.966;2023-04-21T07:46:58;12.17;;;8.23;;
13743;SDS011;6943;52.368;9.966;2023-04-21T07:49:23;10.30;;;7.60;;
13743;SDS011;6943;52.368;9.966;2023-04-21T07:51:49;11.37;;;8.33;;
13743;SDS011;6943;52.368;9.966;2023-04-21T07:54:14;9.17;;;7.27;;
13743;SDS011;6943;52.368;9.966;2023-04-21T07:56:40;13.83;;;8.90;;
13743;SDS011;6943;52.368;9.966;2023-04-21T07:59:05;11.27;;;8.07;;
13743;SDS011;6943;52.368;9.966;2023-04-21T08:01:31;11.57;;;8.20;;
13743;SDS011;6943;52.368;9.966;2023-04-21T08:03:56;10.87;;;7.33;;
13743;SDS011;6943;52.368;9.966;2023-04-21T08:06:22;9.67;;;8.10;;
13743;SDS011;6943;52.368;9.966;2023-04-21T08:08:47;13.87;;;8.47;;
13743;SDS011;6943;52.368;9.966;2023-04-21T08:11:13;12.07;;;7.67;;
13743;SDS011;6943;52.368;9.966;2023-04-21T08:13:38;11.20;;;7.83;;
13743;SDS011;6943;52.368;9.966;2023-04-21T08:16:04;8.67;;;7.33;;
13743;SDS011;6943;52.368;9.966;2023-04-21T08:18:29;12.77;;;8.10;;
13743;SDS011;6943;52.368;9.966;2023-04-21T08:20:55;12.03;;;7.73;;
13743;SDS011;6943;52.368;9.966;2023-04-21T08:23:21;11.43;;;7.97;;
13743;SDS011;6943;52.368;9.966;2023-04-21T08:25:47;10.67;;;7.60;;
13743;SDS011;6943;52.368;9.966;2023-04-21T08:28:13;10.30;;;7.73;;
13743;SDS011;6943;52.368;9.966;2023-04-21T08:30:39;13.70;;;8.30;;
13743;SDS011;6943;52.368;9.966;2023-04-21T08:33:06;11.57;;;8.10;;
13743;SDS011;6943;52.368;9.966;2023-04-21T08:35:34;10.83;;;7.23;;
13743;SDS011;6943;52.368;9.966;2023-04-21T08:38:00;12.83;;;7.53;;
13743;SDS011;6943;52.368;9.966;2023-04-21T08:40:28;12.57;;;8.30;;
13743;SDS011;6943;52.368;9.966;2023-04-21T08:42:57;9.93;;;7.20;;
13743;SDS011;6943;52.368;9.966;2023-04-21T08:45:23;12.20;;;7.70;;
13743;SDS011;6943;52.368;9.966;2023-04-21T08:47:51;10.70;;;7.50;;
13743;SDS011;6943;52.368;9.966;2023-04-21T08:50:18;13.87;;;7.47;;
13743;SDS011;6943;52.368;9.966;2023-04-21T08:52:44;11.47;;;7.23;;
13743;SDS011;6943;52.368;9.966;2023-04-21T08:55:10;14.17;;;7.70;;
13743;SDS011;6943;52.368;9.966;2023-04-21T08:57:37;10.77;;;7.63;;
13743;SDS011;6943;52.368;9.966;2023-04-21T09:00:03;9.90;;;7.07;;
13743;SDS011;6943;52.368;9.966;2023-04-21T09:02:29;9.07;;;6.67;;
13743;SDS011;6943;52.368;9.966;2023-04-21T09:04:54;9.40;;;7.87;;
13743;SDS011;6943;52.368;9.966;2023-04-21T09:07:30;9.97;;;6.93;;
13743;SDS011;6943;52.368;9.966;2023-04-21T09:09:57;10.10;;;6.40;;
13743;SDS011;6943;52.368;9.966;2023-04-21T09:12:26;10.47;;;6.70;;
13743;SDS011;6943;52.368;9.966;2023-04-21T09:14:52;9.87;;;6.10;;
13743;SDS011;6943;52.368;9.966;2023-04-21T09:17:19;11.80;;;6.83;;
13743;SDS011;6943;52.368;9.966;2023-04-21T09:19:47;11.17;;;6.87;;
13743;SDS011;6943;52.368;9.966;2023-04-21T09:22:16;10.47;;;6.27;;
13743;SDS011;6943;52.368;9.966;2023-04-21T09:24:45;9.87;;;6.40;;
13743;SDS011;6943;52.368;9.966;2023-04-21T09:27:13;10.40;;;6.50;;
13743;SDS011;6943;52.368;9.966;2023-04-21T09:29:44;8.93;;;6.20;;
13743;SDS011;6943;52.368;9.966;2023-04-21T09:32:15;7.53;;;5.63;;
13743;SDS011;6943;52.368;9.966;2023-04-21T09:34:42;8.77;;;6.33;;
13743;SDS011;6943;52.368;9.966;2023-04-21T09:37:09;10.33;;;5.47;;
13743;SDS011;6943;52.368;9.966;2023-04-21T09:39:35;9.33;;;5.57;;
13743;SDS011;6943;52.368;9.966;2023-04-21T09:42:00;8.80;;;5.60;;
13743;SDS011;6943;52.368;9.966;2023-04-21T09:44:26;9.73;;;5.03;;
13743;SDS011;6943;52.368;9.966;2023-04-21T09:47:01;9.63;;;5.43;;
13743;SDS011;6943;52.368;9.966;2023-04-21T09:49:28;8.90;;;5.67;;
13743;SDS011;6943;52.368;9.966;2023-04-21T09:51:56;9.93;;;5.57;;
13743;SDS011;6943;52.368;9.966;2023-04-21T09:54:25;7.17;;;5.27;;
13743;SDS011;6943;52.368;9.966;2023-04-21T09:56:55;13.03;;;5.57;;
13743;SDS011;6943;52.368;9.966;2023-04-21T09:59:44;11.17;;;5.53;;
13743;SDS011;6943;52.368;9.966;2023-04-21T10:02:10;6.07;;;5.17;;
13743;SDS011;6943;52.368;9.966;2023-04-21T10:04:37;9.77;;;5.70;;
13743;SDS011;6943;52.368;9.966;2023-04-21T10:07:05;8.50;;;5.50;;
13743;SDS011;6943;52.368;9.966;2023-04-21T10:09:38;10.37;;;5.63;;
13743;SDS011;6943;52.368;9.966;2023-04-21T10:12:14;7.57;;;5.13;;
13743;SDS011;6943;52.368;9.966;2023-04-21T10:14:41;9.10;;;6.23;;
13743;SDS011;6943;52.368;9.966;2023-04-21T10:17:07;9.57;;;5.27;;
13743;SDS011;6943;52.368;9.966;2023-04-21T10:19:34;10.07;;;5.87;;
13743;SDS011;6943;52.368;9.966;2023-04-21T10:22:05;9.50;;;5.40;;
13743;SDS011;6943;52.368;9.966;2023-04-21T10:24:40;8.80;;;5.37;;
13743;SDS011;6943;52.368;9.966;2023-04-21T10:27:10;7.03;;;4.90;;
13743;SDS011;6943;52.368;9.966;2023-04-21T10:29:36;6.83;;;4.70;;
13743;SDS011;6943;52.368;9.966;2023-04-21T10:32:03;7.17;;;5.17;;
13743;SDS011;6943;52.368;9.966;2023-04-21T10:34:33;7.13;;;5.33;;
13743;SDS011;6943;52.368;9.966;2023-04-21T10:39:29;7.73;;;4.60;;
13743;SDS011;6943;52.368;9.966;2023-04-21T10:44:44;5.67;;;5.00;;
13743;SDS011;6943;52.368;9.966;2023-04-21T10:50:11;6.50;;;4.57;;
13743;SDS011;6943;52.368;9.966;2023-04-21T10:52:38;7.30;;;4.20;;
13743;SDS011;6943;52.368;9.966;2023-04-21T10:55:18;11.20;;;5.03;;
13743;SDS011;6943;52.368;9.966;2023-04-21T10:57:45;7.60;;;4.30;;
13743;SDS011;6943;52.368;9.966;2023-04-21T11:00:14;7.77;;;4.30;;
13743;SDS011;6943;52.368;9.966;2023-04-21T11:02:51;5.67;;;4.30;;
13743;SDS011;6943;52.368;9.966;2023-04-21T11:05:25;7.93;;;5.63;;
13743;SDS011;6943;52.368;9.966;2023-04-21T11:08:00;9.30;;;4.80;;
13743;SDS011;6943;52.368;9.966;2023-04-21T11:10:40;8.17;;;4.23;;
13743;SDS011;6943;52.368;9.966;2023-04-21T11:13:09;7.10;;;4.43;;
13743;SDS011;6943;52.368;9.966;2023-04-21T11:15:35;8.23;;;5.00;;
13743;SDS011;6943;52.368;9.966;2023-04-21T11:18:01;7.53;;;4.70;;
13743;SDS011;6943;52.368;9.966;2023-04-21T11:20:27;5.20;;;4.63;;
13743;SDS011;6943;52.368;9.966;2023-04-21T11:22:52;7.13;;;4.97;;
13743;SDS011;6943;52.368;9.966;2023-04-21T11:25:20;6.37;;;4.77;;
13743;SDS011;6943;52.368;9.966;2023-04-21T11:27:53;5.97;;;5.00;;
13743;SDS011;6943;52.368;9.966;2023-04-21T11:30:20;10.67;;;5.27;;
13743;SDS011;6943;52.368;9.966;2023-04-21T11:32:54;7.67;;;5.23;;
13743;SDS011;6943;52.368;9.966;2023-04-21T11:35:20;8.27;;;4.97;;
13743;SDS011;6943;52.368;9.966;2023-04-21T11:37:48;5.87;;;5.20;;
13743;SDS011;6943;52.368;9.966;2023-04-21T11:40:14;8.27;;;5.60;;
13743;SDS011;6943;52.368;9.966;2023-04-21T11:42:40;9.90;;;6.03;;
13743;SDS011;6943;52.368;9.966;2023-04-21T11:45:06;6.57;;;5.27;;
13743;SDS011;6943;52.368;9.966;2023-04-21T11:47:31;6.30;;;5.27;;
13743;SDS011;6943;52.368;9.966;2023-04-21T11:49:59;7.23;;;5.43;;
13743;SDS011;6943;52.368;9.966;2023-04-21T11:52:32;7.37;;;5.70;;
13743;SDS011;6943;52.368;9.966;2023-04-21T11:55:03;8.87;;;5.93;;
13743;SDS011;6943;52.368;9.966;2023-04-21T11:57:30;6.40;;;5.30;;
13743;SDS011;6943;52.368;9.966;2023-04-21T11:59:57;8.13;;;6.07;;
13743;SDS011;6943;52.368;9.966;2023-04-21T12:02:28;7.40;;;5.00;;
13743;SDS011;6943;52.368;9.966;2023-04-21T12:07:24;6.93;;;5.53;;
13743;SDS011;6943;52.368;9.966;2023-04-21T12:09:51;6.40;;;5.33;;
13743;SDS011;6943;52.368;9.966;2023-04-21T12:12:16;6.77;;;5.87;;
13743;SDS011;6943;52.368;9.966;2023-04-21T12:14:43;10.03;;;6.47;;
13743;SDS011;6943;52.368;9.966;2023-04-21T12:17:09;9.37;;;6.23;;
13743;SDS011;6943;52.368;9.966;2023-04-21T12:19:38;6.50;;;5.90;;
13743;SDS011;6943;52.368;9.966;2023-04-21T12:22:09;7.57;;;6.27;;
13743;SDS011;6943;52.368;9.966;2023-04-21T12:24:36;7.10;;;6.30;;
13743;SDS011;6943;52.368;9.966;2023-04-21T12:27:02;8.77;;;5.97;;
13743;SDS011;6943;52.368;9.966;2023-04-21T12:29:28;9.00;;;6.57;;
13743;SDS011;6943;52.368;9.966;2023-04-21T12:31:54;10.77;;;5.40;;
13743;SDS011;6943;52.368;9.966;2023-04-21T12:34:19;8.67;;;6.20;;
13743;SDS011;6943;52.368;9.966;2023-04-21T12:36:45;6.67;;;5.33;;
13743;SDS011;6943;52.368;9.966;2023-04-21T12:39:11;7.87;;;5.20;;
13743;SDS011;6943;52.368;9.966;2023-04-21T12:41:37;9.43;;;6.07;;
13743;SDS011;6943;52.368;9.966;2023-04-21T12:44:03;6.10;;;5.50;;
13743;SDS011;6943;52.368;9.966;2023-04-21T12:46:28;6.87;;;5.00;;
13743;SDS011;6943;52.368;9.966;2023-04-21T12:48:54;8.40;;;5.00;;
13743;SDS011;6943;52.368;9.966;2023-04-21T12:51:20;8.20;;;5.13;;
13743;SDS011;6943;52.368;9.966;2023-04-21T12:53:45;7.97;;;5.50;;
13743;SDS011;6943;52.368;9.966;2023-04-21T12:56:11;6.77;;;4.97;;
13743;SDS011;6943;52.368;9.966;2023-04-21T12:58:36;6.53;;;5.13;;
13743;SDS011;6943;52.368;9.966;2023-04-21T13:01:02;5.70;;;5.03;;
13743;SDS011;6943;52.368;9.966;2023-04-21T13:03:27;6.03;;;5.17;;
13743;SDS011;6943;52.368;9.966;2023-04-21T13:05:53;5.37;;;4.47;;
13743;SDS011;6943;52.368;9.966;2023-04-21T13:08:20;9.17;;;5.37;;
13743;SDS011;6943;52.368;9.966;2023-04-21T13:10:45;7.23;;;5.20;;
13743;SDS011;6943;52.368;9.966;2023-04-21T13:13:11;5.80;;;5.20;;
13743;SDS011;6943;52.368;9.966;2023-04-21T13:15:36;5.43;;;4.93;;
13743;SDS011;6943;52.368;9.966;2023-04-21T13:18:02;7.37;;;4.60;;
13743;SDS011;6943;52.368;9.966;2023-04-21T13:20:27;5.37;;;4.60;;
13743;SDS011;6943;52.368;9.966;2023-04-21T13:22:53;5.80;;;5.07;;
13743;SDS011;6943;52.368;9.966;2023-04-21T13:25:19;9.57;;;5.27;;
13743;SDS011;6943;52.368;9.966;2023-04-21T13:27:44;5.53;;;5.00;;
13743;SDS011;6943;52.368;9.966;2023-04-21T13:30:11;6.40;;;5.13;;
13743;SDS011;6943;52.368;9.966;2023-04-21T13:32:37;6.97;;;5.50;;
13743;SDS011;6943;52.368;9.966;2023-04-21T13:35:03;6.23;;;5.27;;
13743;SDS011;6943;52.368;9.966;2023-04-21T13:37:33;8.10;;;5.03;;
13743;SDS011;6943;52.368;9.966;2023-04-21T13:39:59;5.50;;;4.57;;
13743;SDS011;6943;52.368;9.966;2023-04-21T13:42:25;6.67;;;4.90;;
13743;SDS011;6943;52.368;9.966;2023-04-21T13:44:50;6.30;;;4.73;;
13743;SDS011;6943;52.368;9.966;2023-04-21T13:47:16;5.90;;;4.23;;
13743;SDS011;6943;52.368;9.966;2023-04-21T13:49:41;5.27;;;4.27;;
13743;SDS011;6943;52.368;9.966;2023-04-21T13:52:07;4.93;;;4.20;;
13743;SDS011;6943;52.368;9.966;2023-04-21T13:54:32;5.20;;;4.63;;
13743;SDS011;6943;52.368;9.966;2023-04-21T13:56:58;8.00;;;4.70;;
13743;SDS011;6943;52.368;9.966;2023-04-21T13:59:24;8.33;;;3.90;;
13743;SDS011;6943;52.368;9.966;2023-04-21T14:01:49;7.43;;;4.03;;
13743;SDS011;6943;52.368;9.966;2023-04-21T14:04:15;6.90;;;4.63;;
13743;SDS011;6943;52.368;9.966;2023-04-21T14:06:40;5.10;;;3.80;;
13743;SDS011;6943;52.368;9.966;2023-04-21T14:09:06;4.80;;;4.20;;
13743;SDS011;6943;52.368;9.966;2023-04-21T14:11:33;4.97;;;4.47;;
13743;SDS011;6943;52.368;9.966;2023-04-21T14:13:58;6.20;;;4.50;;
13743;SDS011;6943;52.368;9.966;2023-04-21T14:16:24;5.00;;;3.97;;
13743;SDS011;6943;52.368;9.966;2023-04-21T14:18:50;4.87;;;4.03;;
13743;SDS011;6943;52.368;9.966;2023-04-21T14:21:16;7.03;;;4.57;;
13743;SDS011;6943;52.368;9.966;2023-04-21T14:23:41;5.03;;;4.37;;
13743;SDS011;6943;52.368;9.966;2023-04-21T14:26:07;8.70;;;5.00;;
13743;SDS011;6943;52.368;9.966;2023-04-21T14:28:32;7.33;;;5.03;;
13743;SDS011;6943;52.368;9.966;2023-04-21T14:30:58;4.57;;;4.17;;
13743;SDS011;6943;52.368;9.966;2023-04-21T14:33:23;8.37;;;4.47;;
13743;SDS011;6943;52.368;9.966;2023-04-21T14:35:49;6.23;;;5.00;;
13743;SDS011;6943;52.368;9.966;2023-04-21T14:38:15;6.00;;;4.90;;
13743;SDS011;6943;52.368;9.966;2023-04-21T14:40:40;6.07;;;4.40;;
13743;SDS011;6943;52.368;9.966;2023-04-21T14:43:06;8.37;;;4.70;;
13743;SDS011;6943;52.368;9.966;2023-04-21T14:45:31;9.03;;;4.93;;
13743;SDS011;6943;52.368;9.966;2023-04-21T14:47:57;5.53;;;4.83;;
13743;SDS011;6943;52.368;9.966;2023-04-21T14:50:22;6.30;;;4.40;;
13743;SDS011;6943;52.368;9.966;2023-04-21T14:52:48;5.23;;;4.20;;
13743;SDS011;6943;52.368;9.966;2023-04-21T14:55:14;6.37;;;3.90;;